Nearby METAR Reports

 

KMQS - Coatesville, Pennsylvania, USA
Distance from station: ENE 6mi, 10km
Updated: Thu, 19-Oct-2017 7:35pm EDT
Clear
Clear
 Wind from calm
Wind: Calm
Temperature: 59°F , 15°C
Dew Point: 50°F , 10°C
Humidity: 72%
Barometer: 30.15 inHg , 1021 hPa
Clouds: Clear
Visibility: 10 miles , 16 km
2017/10/19 23:35 KMQS 192335Z AUTO 00000KT 10SM CLR 15/10 A3015 RMK AO2
KLNS - Lancaster, Pennsylvania, USA
Distance from station: NW 21mi, 33km
Updated: Thu, 19-Oct-2017 6:53pm EDT
Clear
Clear
 Wind from SSW
Wind: SSW 6 mph , 9 km/h
Temperature: 66°F , 19°C
Dew Point: 46°F , 8°C
Humidity: 49%
Barometer: 30.11 inHg , 1019.6 hPa
Clouds: Clear
Visibility: 10 miles , 16 km
2017/10/19 22:53 KLNS 192253Z 21005KT 10SM CLR 19/08 A3011 RMK AO2 SLP197 T01890078
 
KILG - Wilmington, Delaware, USA
Distance from station: SE 28mi, 45km
Updated: Thu, 19-Oct-2017 6:51pm EDT
Clear
Clear
 Wind from SW
Wind: SW 5 mph , 7 km/h
Temperature: 63°F , 17°C
Dew Point: 48°F , 9°C
Humidity: 59%
Barometer: 30.14 inHg , 1020.7 hPa
Clouds: Clear
Visibility: 10 miles , 16 km
2017/10/19 22:51 KILG 192251Z 22004KT 10SM CLR 17/09 A3014 RMK AO2 SLP205 T01720094
KRDG - Reading, Pennsylvania, USA
Distance from station: N 29mi, 47km
Updated: Thu, 19-Oct-2017 6:54pm EDT
Clear
Clear
 Wind from S
Wind: S 3 mph , 6 km/h
Temperature: 64°F , 18°C
Dew Point: 46°F , 8°C
Humidity: 52%
Barometer: 30.10 inHg , 1019.3 hPa
Clouds: Clear
Visibility: 10 miles , 16 km
2017/10/19 22:54 KRDG 192254Z 18003KT 10SM CLR 18/08 A3010 RMK AO2 SLP198 T01830083
 
KPTW - Pottstown, Pennsylvania, USA
Distance from station: NE 30mi, 48km
Updated: Thu, 19-Oct-2017 6:54pm EDT
Clear
Clear
 Wind from S
Wind: S 3 mph , 6 km/h
Temperature: 63°F , 17°C
Dew Point: 46°F , 8°C
Humidity: 56%
Barometer: 30.13 inHg , 1020.3 hPa
Clouds: Clear
Visibility: 10 miles , 16 km
2017/10/19 22:54 KPTW 192254Z AUTO 18003KT 10SM CLR 17/08 A3013 RMK AO2 SLP202 T01670083